Time;durP1;ratioP1;P1;durP2;ratioP2;P2;SDS_P1;SDS_P2;PMS_P1;PMS_P2;Temp;Humidity;BMP_temperature;BMP_pressure;BME280_temperature;BME280_humidity;BME280_pressure;Samples;Min_cycle;Max_cycle;Signal;HPM_P1;HPM_P2
2024/02/10 05:01:19;;;;;;;1.00;0.90;;;9.30;97.30;;;;;;5779030;23;20679;-89
2024/02/10 05:04:14;;;;;;;1.10;1.00;;;9.30;97.30;;;;;;5018869;28;20512;-92
2024/02/10 05:07:15;;;;;;;1.00;0.90;;;9.40;97.30;;;;;;4986684;28;20536;-91
2024/02/10 05:10:21;;;;;;;1.20;1.07;;;9.40;97.30;;;;;;4983540;28;20863;-90
2024/02/10 05:12:50;;;;;;;1.00;1.00;;;9.40;97.30;;;;;;4979167;28;20425;-91
2024/02/10 05:15:40;;;;;;;0.90;0.80;;;9.40;97.30;;;;;;4979591;28;20433;-92
2024/02/10 05:22:32;;;;;;;;;;;;;;;;;;;;;
2024/02/10 05:25:29;;;;;;;1.23;1.13;;;9.40;97.30;;;;;;4956271;28;20460;-93
2024/02/10 05:32:54;;;;;;;;;;;;;;;;;;;;;
2024/02/10 05:36:40;;;;;;;1.30;1.20;;;9.40;97.30;;;;;;4898292;29;20428;-93
2024/02/10 05:43:24;;;;;;;;;;;;;;;;;;;;;
2024/02/10 05:53:01;;;;;;;;;;;;;;;;;;;;;
2024/02/10 05:55:30;;;;;;;1.10;1.00;;;9.50;97.30;;;;;;4856723;29;20423;-88
2024/02/10 05:58:39;;;;;;;0.97;0.87;;;9.50;97.30;;;;;;4844007;29;20768;-89
2024/02/10 06:01:13;;;;;;;1.93;0.93;;;9.50;97.30;;;;;;4874998;29;20486;-89
2024/02/10 06:04:41;;;;;;;1.03;0.93;;;9.50;97.30;;;;;;4875435;29;20478;-90
2024/02/10 06:07:16;;;;;;;0.90;0.80;;;9.50;97.30;;;;;;4852330;29;20509;-89
2024/02/10 06:10:39;;;;;;;0.90;0.80;;;9.50;97.30;;;;;;4847110;29;20427;-91
2024/02/10 06:13:14;;;;;;;0.80;0.70;;;9.50;97.30;;;;;;4902658;29;20966;-89
2024/02/10 06:15:54;;;;;;;1.33;1.23;;;9.50;97.30;;;;;;4897379;29;20502;-89
2024/02/10 06:19:12;;;;;;;1.90;1.40;;;9.50;97.30;;;;;;4903728;29;20424;-89
2024/02/10 06:21:41;;;;;;;1.27;1.17;;;9.50;97.30;;;;;;4896932;29;20441;-89
2024/02/10 06:24:42;;;;;;;1.10;1.00;;;9.50;97.30;;;;;;4910338;29;20475;-89
2024/02/10 06:31:20;;;;;;;1.30;1.20;;;9.50;97.30;;;;;;4921265;29;20427;-89
2024/02/10 06:34:51;;;;;;;0.90;0.80;;;9.50;97.30;;;;;;4907385;28;20454;-90
2024/02/10 06:42:09;;;;;;;1.03;0.93;;;9.50;97.30;;;;;;4847991;29;20539;-89
2024/02/10 06:44:42;;;;;;;0.80;0.70;;;9.50;97.30;;;;;;4845905;29;20773;-89
2024/02/10 06:47:21;;;;;;;1.30;1.23;;;9.40;97.30;;;;;;4830698;29;20424;-91
2024/02/10 06:54:42;;;;;;;2.53;1.87;;;9.50;97.30;;;;;;4806501;29;20442;-88
2024/02/10 06:57:11;;;;;;;1.60;1.47;;;9.50;97.30;;;;;;4796653;29;20939;-89
2024/02/10 07:00:41;;;;;;;0.90;0.80;;;9.50;97.30;;;;;;4829085;29;20483;-90
2024/02/10 07:04:19;;;;;;;1.40;1.30;;;9.50;97.30;;;;;;4808793;29;20489;-89
2024/02/10 07:10:20;;;;;;;1.00;0.90;;;9.60;97.30;;;;;;4786027;29;20492;-89
2024/02/10 07:13:51;;;;;;;;;;;;;;;;;;;;;
2024/02/10 07:16:59;;;;;;;1.53;0.80;;;9.60;97.30;;;;;;4790921;29;20457;-91
2024/02/10 07:29:30;;;;;;;;;;;;;;;;;;;;;
2024/02/10 07:32:21;;;;;;;1.20;1.10;;;9.90;97.30;;;;;;4796045;29;20454;-89
2024/02/10 07:41:11;;;;;;;1.90;1.63;;;10.00;97.30;;;;;;4877179;29;20445;-88
2024/02/10 07:44:13;;;;;;;1.57;1.00;;;10.00;97.30;;;;;;4874835;29;21028;-90
2024/02/10 07:54:22;;;;;;;4.43;1.80;;;10.10;97.30;;;;;;4894858;29;20445;-89
2024/02/10 07:56:59;;;;;;;1.00;0.90;;;10.10;97.30;;;;;;4896761;29;20424;-89
2024/02/10 07:59:40;;;;;;;1.10;1.00;;;10.10;97.30;;;;;;4907945;29;21332;-89
2024/02/10 08:05:20;;;;;;;;;;;;;;;;;;;;;
2024/02/10 08:08:03;;;;;;;1.10;1.00;;;10.20;97.30;;;;;;4914056;29;20442;-89
2024/02/10 08:11:11;;;;;;;1.67;1.57;;;10.20;97.30;;;;;;4929424;29;20426;-89
2024/02/10 08:20:22;;;;;;;1.07;0.97;;;10.30;97.30;;;;;;4799261;29;20453;-89
2024/02/10 08:23:01;;;;;;;11.33;1.27;;;10.30;97.30;;;;;;4811274;29;20469;-89
2024/02/10 08:26:10;;;;;;;1.10;1.00;;;10.30;97.30;;;;;;4872111;29;20434;-89
2024/02/10 08:29:21;;;;;;;;;;;;;;;;;;;;;
2024/02/10 08:32:31;;;;;;;1.13;1.03;;;10.40;97.30;;;;;;4875717;29;20446;-89
2024/02/10 08:35:22;;;;;;;;;;;;;;;;;;;;;
2024/02/10 08:38:19;;;;;;;1.47;1.37;;;10.50;97.30;;;;;;4855994;29;20425;-89
2024/02/10 08:47:51;;;;;;;1.47;1.37;;;10.70;97.30;;;;;;4862794;29;20506;-89
2024/02/10 08:50:32;;;;;;;1.40;1.30;;;10.80;97.30;;;;;;4859578;29;20471;-90
2024/02/10 08:56:50;;;;;;;1.67;1.60;;;10.80;97.30;;;;;;4909178;29;20842;-90
2024/02/10 08:59:42;;;;;;;;;;;;;;;;;;;;;
2024/02/10 09:02:11;;;;;;;2.00;1.10;;;10.80;97.30;;;;;;4833975;29;20510;-89
2024/02/10 09:04:39;;;;;;;1.23;1.13;;;10.80;97.30;;;;;;4826391;29;20493;-89
2024/02/10 09:07:21;;;;;;;1.50;1.40;;;10.80;97.30;;;;;;4839674;29;20431;-90
2024/02/10 09:10:00;;;;;;;2.80;1.73;;;10.90;97.30;;;;;;4856733;29;20431;-89
2024/02/10 09:12:26;;;;;;;1.00;0.87;;;10.90;97.30;;;;;;5010012;23;20888;-64
2024/02/10 09:14:52;;;;;;;1.77;1.67;;;10.90;97.30;;;;;;5018778;28;20860;-64
2024/02/10 09:17:18;;;;;;;3.30;1.63;;;10.90;97.30;;;;;;5018764;28;20558;-64
2024/02/10 09:19:44;;;;;;;1.10;0.90;;;11.00;97.30;;;;;;5019084;28;20423;-64
2024/02/10 09:22:10;;;;;;;1.10;1.00;;;11.10;97.30;;;;;;5035487;28;20585;-64
2024/02/10 09:24:36;;;;;;;1.10;1.00;;;11.30;97.30;;;;;;5044719;28;20430;-63
2024/02/10 09:27:04;;;;;;;1.07;0.97;;;11.40;97.30;;;;;;5040631;28;20193;-64
2024/02/10 09:29:29;;;;;;;1.13;1.10;;;11.40;97.30;;;;;;5033938;28;20450;-64
2024/02/10 09:31:59;;;;;;;1.00;0.90;;;11.40;97.30;;;;;;5039653;28;20508;-64
2024/02/10 09:34:27;;;;;;;1.73;1.63;;;11.30;97.30;;;;;;5039195;28;20215;-64
2024/02/10 09:36:53;;;;;;;1.57;1.57;;;11.30;97.30;;;;;;5025493;28;20427;-64
2024/02/10 09:39:20;;;;;;;0.80;0.80;;;11.30;97.30;;;;;;5042312;28;20410;-64
2024/02/10 09:41:47;;;;;;;1.47;1.37;;;11.30;97.30;;;;;;5041461;28;20438;-64
2024/02/10 09:44:17;;;;;;;1.50;1.40;;;11.40;97.30;;;;;;5041705;28;20465;-64
2024/02/10 09:46:44;;;;;;;1.43;1.33;;;11.40;97.30;;;;;;5034109;28;20462;-64
2024/02/10 09:49:13;;;;;;;1.50;1.40;;;11.50;97.30;;;;;;5024761;28;20528;-64
2024/02/10 09:51:40;;;;;;;1.37;1.30;;;11.50;97.30;;;;;;5015075;28;20452;-64
2024/02/10 09:54:06;;;;;;;0.90;0.80;;;11.60;97.30;;;;;;5023790;28;20458;-64
2024/02/10 09:56:33;;;;;;;1.23;1.17;;;11.60;97.30;;;;;;5024077;28;20538;-64
2024/02/10 09:58:59;;;;;;;3.70;1.57;;;11.80;97.30;;;;;;5014090;28;20939;-64
2024/02/10 10:01:32;;;;;;;2.17;1.53;;;11.80;97.30;;;;;;5015503;28;20999;-64
2024/02/10 10:03:58;;;;;;;4.53;1.30;;;11.80;97.30;;;;;;5017981;28;20463;-64
2024/02/10 10:06:25;;;;;;;1.10;1.00;;;11.90;97.30;;;;;;5011462;28;20409;-64
2024/02/10 10:08:51;;;;;;;1.37;1.07;;;12.00;97.30;;;;;;5012941;28;20424;-64
2024/02/10 10:11:16;;;;;;;1.40;1.30;;;12.10;97.30;;;;;;5022593;28;20459;-64
2024/02/10 10:13:42;;;;;;;1.83;1.73;;;12.20;97.30;;;;;;5021086;28;20220;-64
2024/02/10 10:16:10;;;;;;;1.17;1.10;;;12.30;97.30;;;;;;5030823;28;20188;-64
2024/02/10 10:18:36;;;;;;;2.20;1.67;;;12.50;97.30;;;;;;5022301;28;20185;-64
2024/02/10 10:21:06;;;;;;;1.00;0.90;;;12.70;97.30;;;;;;5021562;28;20451;-64
2024/02/10 10:23:35;;;;;;;1.00;0.90;;;12.70;97.30;;;;;;5022612;28;20368;-64
2024/02/10 10:26:01;;;;;;;0.97;0.87;;;12.90;97.30;;;;;;5021631;28;20423;-64
2024/02/10 10:28:30;;;;;;;2.77;2.57;;;13.10;97.30;;;;;;5030965;28;20778;-61
2024/02/10 10:30:57;;;;;;;1.30;1.20;;;13.30;97.30;;;;;;5020349;28;20435;-61
2024/02/10 10:33:25;;;;;;;1.30;1.20;;;13.50;97.30;;;;;;5019111;28;20954;-61
2024/02/10 10:35:54;;;;;;;0.90;0.80;;;13.40;97.30;;;;;;5027054;28;20947;-61
2024/02/10 10:38:21;;;;;;;0.90;0.80;;;13.60;97.30;;;;;;5025051;28;20419;-61
2024/02/10 10:40:51;;;;;;;1.10;1.00;;;13.70;97.30;;;;;;5027429;28;20537;-62
2024/02/10 10:43:19;;;;;;;4.30;1.87;;;13.80;97.30;;;;;;5022060;28;20459;-61
2024/02/10 10:45:45;;;;;;;1.00;0.90;;;13.80;97.30;;;;;;5020561;28;20463;-62
2024/02/10 10:48:11;;;;;;;1.00;0.90;;;13.80;97.30;;;;;;5017308;28;20462;-61
2024/02/10 10:50:36;;;;;;;0.90;0.80;;;13.90;97.30;;;;;;5013936;28;20601;-61
2024/02/10 10:53:06;;;;;;;1.00;0.93;;;14.00;97.30;;;;;;5021495;28;20869;-61
2024/02/10 10:55:35;;;;;;;1.10;1.00;;;14.20;97.30;;;;;;5015448;28;20188;-61
2024/02/10 10:58:04;;;;;;;1.37;1.30;;;14.30;97.30;;;;;;5020658;28;20926;-61
2024/02/10 11:00:33;;;;;;;2.10;1.63;;;14.40;97.30;;;;;;5028731;28;20481;-62
2024/02/10 11:03:02;;;;;;;1.33;1.03;;;14.50;97.30;;;;;;5018091;28;20467;-61
2024/02/10 11:05:32;;;;;;;2.63;2.43;;;14.60;97.30;;;;;;5010400;28;20804;-62
2024/02/10 11:08:01;;;;;;;1.03;0.97;;;14.70;97.30;;;;;;5017934;28;21084;-61
2024/02/10 11:10:38;;;;;;;0.80;0.70;;;14.80;97.30;;;;;;5008681;28;20498;-61
2024/02/10 11:13:05;;;;;;;1.10;1.10;;;15.00;97.30;;;;;;5026104;28;20565;-61
2024/02/10 11:15:31;;;;;;;1.23;1.13;;;15.10;97.30;;;;;;5010395;28;20416;-61
2024/02/10 11:18:02;;;;;;;2.77;1.83;;;15.30;97.30;;;;;;5019561;28;20411;-62
2024/02/10 11:20:37;;;;;;;1.00;0.90;;;15.40;97.30;;;;;;5020254;28;20254;-61
2024/02/10 11:23:15;;;;;;;1.17;1.07;;;15.60;97.30;;;;;;5017624;28;20470;-61
2024/02/10 11:25:41;;;;;;;1.03;1.00;;;15.60;97.30;;;;;;5024486;28;20766;-62
2024/02/10 11:28:20;;;;;;;0.90;0.90;;;15.40;97.30;;;;;;5038874;23;20483;-87
2024/02/10 11:30:46;;;;;;;4.27;2.60;;;15.50;97.30;;;;;;5023022;28;20422;-87
2024/02/10 11:33:11;;;;;;;0.90;0.80;;;15.60;97.30;;;;;;5034323;28;20430;-88
2024/02/10 11:35:37;;;;;;;0.87;0.77;;;15.60;97.30;;;;;;5035334;28;20197;-87
2024/02/10 11:38:05;;;;;;;0.87;0.77;;;15.70;97.30;;;;;;5030639;28;20214;-87
2024/02/10 11:40:32;;;;;;;0.70;0.70;;;15.80;97.30;;;;;;5022382;28;20435;-87
2024/02/10 11:42:58;;;;;;;2.03;1.10;;;15.90;97.30;;;;;;5039947;28;20462;-87
2024/02/10 11:45:23;;;;;;;1.10;1.00;;;15.90;97.30;;;;;;5048815;28;20426;-86
2024/02/10 11:47:53;;;;;;;3.37;1.40;;;15.90;97.30;;;;;;5031659;28;20863;-88
2024/02/10 11:50:18;;;;;;;0.83;0.73;;;16.10;97.30;;;;;;5025634;28;20194;-88
2024/02/10 11:52:43;;;;;;;0.87;0.77;;;16.20;97.30;;;;;;5028995;28;20909;-87
2024/02/10 11:55:10;;;;;;;0.80;0.70;;;16.00;97.30;;;;;;5032104;28;20176;-87
2024/02/10 11:57:37;;;;;;;1.17;1.07;;;16.00;97.30;;;;;;5033129;28;20172;-87
2024/02/10 12:00:06;;;;;;;0.90;0.80;;;16.00;97.30;;;;;;5030780;28;20527;-88
2024/02/10 12:02:32;;;;;;;0.87;0.77;;;16.10;97.30;;;;;;5034346;28;20414;-85
2024/02/10 12:04:59;;;;;;;1.00;0.90;;;16.10;97.30;;;;;;5032185;28;20514;-87
2024/02/10 12:07:28;;;;;;;0.90;0.90;;;16.10;97.30;;;;;;5033370;28;20422;-88
2024/02/10 12:09:55;;;;;;;1.33;1.17;;;16.10;97.30;;;;;;5033488;28;20417;-87
2024/02/10 12:12:22;;;;;;;0.80;0.70;;;16.20;97.30;;;;;;5028454;28;20419;-86
2024/02/10 12:14:49;;;;;;;1.00;0.90;;;16.30;97.30;;;;;;5024149;28;20422;-88
2024/02/10 12:17:19;;;;;;;1.20;1.07;;;16.30;97.30;;;;;;5049517;28;20424;-87
2024/02/10 12:19:46;;;;;;;0.80;0.70;;;16.50;97.30;;;;;;5023206;28;21129;-87
2024/02/10 12:22:11;;;;;;;0.90;0.80;;;16.50;97.30;;;;;;5028039;28;20617;-88
2024/02/10 12:24:37;;;;;;;1.10;1.00;;;16.50;97.30;;;;;;5027987;28;20458;-87
2024/02/10 12:27:03;;;;;;;0.90;0.80;;;16.60;97.30;;;;;;5030949;28;20176;-87
2024/02/10 12:29:29;;;;;;;0.90;0.80;;;16.60;97.30;;;;;;5032192;28;20862;-87
2024/02/10 12:31:55;;;;;;;0.90;0.90;;;16.60;97.30;;;;;;5025855;28;20533;-88
2024/02/10 12:34:20;;;;;;;0.90;0.80;;;16.50;97.30;;;;;;5027493;28;20423;-88
2024/02/10 12:36:46;;;;;;;1.10;1.00;;;16.50;97.30;;;;;;5048049;28;20175;-87
2024/02/10 12:39:12;;;;;;;1.27;1.20;;;16.50;97.30;;;;;;5027449;28;20196;-88
2024/02/10 12:41:38;;;;;;;0.90;0.80;;;16.70;97.30;;;;;;5032801;28;20202;-87
2024/02/10 12:44:05;;;;;;;0.70;0.70;;;16.70;97.30;;;;;;5022557;28;20470;-87
2024/02/10 12:46:31;;;;;;;0.90;0.80;;;16.70;97.30;;;;;;5043014;28;20411;-88
2024/02/10 12:48:56;;;;;;;1.40;1.13;;;16.70;97.30;;;;;;5043047;28;20434;-87
2024/02/10 12:51:24;;;;;;;8.03;1.13;;;16.80;97.30;;;;;;5031531;28;20204;-87
2024/02/10 12:53:53;;;;;;;0.97;0.90;;;16.70;97.30;;;;;;5046839;28;20177;-88
2024/02/10 12:56:24;;;;;;;0.80;0.70;;;16.60;97.30;;;;;;5041988;28;20765;-87
2024/02/10 12:58:50;;;;;;;0.90;0.80;;;16.60;97.30;;;;;;5026115;28;20431;-85
2024/02/10 13:01:15;;;;;;;0.90;0.80;;;16.70;97.30;;;;;;5023224;28;20823;-87
2024/02/10 13:03:41;;;;;;;1.60;1.50;;;16.70;97.30;;;;;;5020309;28;20214;-87
2024/02/10 13:06:11;;;;;;;0.80;0.70;;;16.70;97.30;;;;;;5023187;28;20266;-87
2024/02/10 13:08:39;;;;;;;1.10;1.07;;;16.60;97.30;;;;;;5030500;28;20370;-86
2024/02/10 13:11:07;;;;;;;1.27;1.17;;;16.50;97.30;;;;;;5023276;28;20468;-87
2024/02/10 13:13:33;;;;;;;1.00;0.90;;;16.50;97.30;;;;;;5021106;28;20463;-87
2024/02/10 13:15:58;;;;;;;1.00;0.90;;;16.50;97.30;;;;;;5044764;28;20924;-87
2024/02/10 13:18:24;;;;;;;0.80;0.70;;;16.50;97.30;;;;;;5022626;28;20697;-87
2024/02/10 13:20:50;;;;;;;1.00;0.90;;;16.50;97.30;;;;;;5030347;28;20188;-87
2024/02/10 13:23:15;;;;;;;0.80;0.70;;;16.30;97.30;;;;;;5021549;28;20291;-87
2024/02/10 13:25:41;;;;;;;0.90;0.80;;;16.20;97.30;;;;;;5030538;28;20172;-87
2024/02/10 13:28:07;;;;;;;1.10;1.00;;;16.20;97.30;;;;;;5029035;28;20231;-87
2024/02/10 13:30:36;;;;;;;1.00;0.90;;;16.10;97.30;;;;;;5041397;28;20557;-87
2024/02/10 13:33:02;;;;;;;0.83;0.70;;;16.00;97.30;;;;;;5043833;28;20436;-87
2024/02/10 13:35:29;;;;;;;2.60;1.33;;;15.90;97.30;;;;;;5042218;28;20565;-87
2024/02/10 14:07:48;;;;;;;1.23;1.10;;;16.40;97.30;;;;;;5053179;28;20179;-88
2024/02/10 14:12:45;;;;;;;1.17;1.13;;;16.10;97.30;;;;;;5047152;28;20423;-87
2024/02/10 14:15:17;;;;;;;0.90;0.80;;;15.90;97.30;;;;;;5035497;28;20769;-88
2024/02/10 14:17:50;;;;;;;1.03;0.93;;;15.80;97.30;;;;;;5046342;28;20438;-87
2024/02/10 14:20:18;;;;;;;1.30;1.10;;;15.60;97.30;;;;;;5045801;28;20506;-87
2024/02/10 14:22:46;;;;;;;1.67;1.00;;;15.50;97.30;;;;;;5040469;28;20454;-87
2024/02/10 14:25:23;;;;;;;2.10;1.13;;;15.30;97.30;;;;;;5043082;28;20549;-87
2024/02/10 14:27:59;;;;;;;1.80;0.90;;;15.20;97.30;;;;;;5039402;28;20537;-88
2024/02/10 14:30:35;;;;;;;1.10;0.87;;;14.90;97.30;;;;;;5026597;28;20509;-87
2024/02/10 14:33:12;;;;;;;1.53;0.90;;;14.80;97.30;;;;;;5031502;28;20477;-87
2024/02/10 14:35:49;;;;;;;1.13;1.03;;;14.80;97.30;;;;;;5029472;28;20423;-87
2024/02/10 14:38:30;;;;;;;16.57;1.70;;;14.70;97.30;;;;;;5032994;28;20480;-87
2024/02/10 14:41:03;;;;;;;7.97;2.57;;;14.70;97.30;;;;;;5022980;28;20423;-87
2024/02/10 14:43:29;;;;;;;1.00;0.90;;;14.60;97.30;;;;;;5034284;28;20462;-87
2024/02/10 14:46:01;;;;;;;1.50;1.40;;;14.60;97.30;;;;;;5023339;28;20473;-87
2024/02/10 14:48:28;;;;;;;1.10;1.00;;;14.50;97.30;;;;;;5029693;28;20438;-87
2024/02/10 14:50:55;;;;;;;0.90;0.80;;;14.50;97.30;;;;;;5027712;28;20422;-86
2024/02/10 14:53:37;;;;;;;3.10;1.23;;;14.40;97.30;;;;;;5029499;28;20441;-86
2024/02/10 14:56:10;;;;;;;1.30;1.20;;;14.40;97.30;;;;;;5049027;28;20984;-87
2024/02/10 14:58:37;;;;;;;1.13;1.07;;;14.30;97.30;;;;;;5034302;28;20449;-87
2024/02/10 15:01:04;;;;;;;13.43;2.17;;;14.20;97.30;;;;;;5047605;28;20682;-86
2024/02/10 15:03:32;;;;;;;1.10;1.00;;;14.10;97.30;;;;;;5052013;28;20450;-87
2024/02/10 15:05:58;;;;;;;1.20;1.10;;;14.10;97.30;;;;;;5039008;28;20450;-87
2024/02/10 15:08:24;;;;;;;2.43;1.77;;;14.00;97.30;;;;;;5027259;28;20816;-87
2024/02/10 15:10:53;;;;;;;1.30;1.10;;;14.00;97.30;;;;;;5025453;28;20421;-87
2024/02/10 15:13:19;;;;;;;1.83;1.40;;;13.90;97.30;;;;;;5033648;28;20496;-87
2024/02/10 15:15:45;;;;;;;1.20;1.10;;;13.80;97.30;;;;;;5024771;28;20481;-87
2024/02/10 15:18:15;;;;;;;1.00;0.90;;;13.70;97.30;;;;;;5030307;28;20582;-87
2024/02/10 15:20:46;;;;;;;3.20;1.70;;;13.70;97.30;;;;;;5032856;28;20556;-87
2024/02/10 15:23:12;;;;;;;3.03;2.90;;;13.60;97.30;;;;;;5030101;28;20469;-87
2024/02/10 15:25:41;;;;;;;1.90;1.73;;;13.50;97.30;;;;;;5033318;28;20427;-86
2024/02/10 15:28:14;;;;;;;2.73;1.50;;;13.50;97.30;;;;;;5034858;28;20250;-87
2024/02/10 15:30:43;;;;;;;2.17;1.77;;;13.40;97.30;;;;;;5050269;28;20804;-86
2024/02/10 15:33:10;;;;;;;2.60;1.80;;;13.40;97.30;;;;;;5045751;28;20433;-88
2024/02/10 15:35:36;;;;;;;2.23;2.03;;;13.40;97.30;;;;;;5045854;28;20483;-87
2024/02/10 15:38:01;;;;;;;6.93;3.23;;;13.30;97.30;;;;;;5051855;28;20490;-86
2024/02/10 15:40:27;;;;;;;3.80;2.60;;;13.30;97.30;;;;;;5047587;28;20557;-86
2024/02/10 15:42:52;;;;;;;5.30;1.70;;;13.20;97.30;;;;;;5048464;28;20206;-87
2024/02/10 15:45:24;;;;;;;4.93;2.90;;;13.20;97.30;;;;;;5038942;28;20188;-87
2024/02/10 15:47:53;;;;;;;2.23;2.03;;;13.10;97.30;;;;;;5041955;28;20741;-87
2024/02/10 15:50:18;;;;;;;3.07;1.40;;;13.10;97.30;;;;;;5046424;28;20421;-87
2024/02/10 15:52:45;;;;;;;3.03;2.50;;;13.00;97.30;;;;;;5041264;28;20423;-87
2024/02/10 15:55:11;;;;;;;4.87;3.10;;;13.00;97.30;;;;;;5049555;28;20226;-87
2024/02/10 15:57:37;;;;;;;5.13;2.20;;;12.90;97.30;;;;;;5042548;28;20416;-87
2024/02/10 16:00:10;;;;;;;4.63;2.17;;;12.90;97.30;;;;;;5041519;28;20282;-87
2024/02/10 16:02:36;;;;;;;9.10;3.67;;;12.80;97.30;;;;;;5041492;28;20203;-87
2024/02/10 16:05:09;;;;;;;3.67;3.50;;;12.80;97.30;;;;;;5049873;28;20414;-86
2024/02/10 16:07:37;;;;;;;3.27;2.60;;;12.70;97.30;;;;;;5037880;28;20227;-86
2024/02/10 16:10:03;;;;;;;4.20;2.37;;;12.70;97.30;;;;;;5041896;28;20414;-87
2024/02/10 16:12:29;;;;;;;6.97;3.13;;;12.60;97.30;;;;;;5045636;28;20410;-86
2024/02/10 16:14:55;;;;;;;2.43;2.23;;;12.60;97.30;;;;;;5041750;28;20804;-87
2024/02/10 16:17:20;;;;;;;2.80;2.60;;;12.50;97.30;;;;;;5048183;28;20190;-85
2024/02/10 16:19:48;;;;;;;8.73;3.90;;;12.40;97.30;;;;;;5047624;28;20693;-87
2024/02/10 16:22:16;;;;;;;9.60;5.00;;;12.30;97.30;;;;;;5044172;28;20653;-86
2024/02/10 16:24:43;;;;;;;4.50;2.70;;;12.30;97.30;;;;;;5043397;28;21027;-85
2024/02/10 16:27:08;;;;;;;5.23;4.10;;;12.20;97.30;;;;;;5048407;28;20983;-86
2024/02/10 16:29:34;;;;;;;6.13;2.87;;;12.20;97.30;;;;;;5041993;28;20462;-86
2024/02/10 16:31:59;;;;;;;4.50;3.20;;;12.10;97.30;;;;;;5048017;28;20176;-86
2024/02/10 16:34:27;;;;;;;9.50;5.00;;;12.00;97.30;;;;;;5039745;28;20245;-88
2024/02/10 16:36:53;;;;;;;3.97;3.03;;;12.00;97.30;;;;;;5037762;28;20180;-87
2024/02/10 16:39:20;;;;;;;9.90;4.07;;;12.00;97.30;;;;;;5044806;28;20503;-87
2024/02/10 16:41:46;;;;;;;10.77;4.40;;;11.90;97.30;;;;;;5045198;28;20226;-87
2024/02/10 16:44:11;;;;;;;1.80;1.70;;;11.90;97.30;;;;;;5044689;28;20469;-87
2024/02/10 16:46:47;;;;;;;2.60;2.00;;;11.80;97.30;;;;;;5046855;28;20257;-86
2024/02/10 16:49:14;;;;;;;8.93;3.20;;;11.80;97.30;;;;;;5045704;28;20203;-87
2024/02/10 16:51:40;;;;;;;6.57;4.50;;;11.70;97.30;;;;;;5045887;28;20797;-87
2024/02/10 16:54:11;;;;;;;8.70;5.07;;;11.70;97.30;;;;;;5049061;28;20437;-87
2024/02/10 16:56:38;;;;;;;4.53;3.50;;;11.70;97.30;;;;;;5037732;28;20181;-87
2024/02/10 16:59:04;;;;;;;3.33;2.33;;;11.60;97.30;;;;;;5041175;28;20967;-87
2024/02/10 17:01:32;;;;;;;3.10;2.40;;;11.60;97.30;;;;;;5049069;28;20653;-87
2024/02/10 17:04:00;;;;;;;6.10;3.33;;;11.50;97.30;;;;;;5048775;28;20211;-87
2024/02/10 17:06:25;;;;;;;5.33;3.77;;;11.50;97.30;;;;;;5040626;28;20450;-87
2024/02/10 17:08:51;;;;;;;3.93;3.73;;;11.50;97.30;;;;;;5047193;28;20470;-87
2024/02/10 17:11:17;;;;;;;4.80;4.50;;;11.40;97.30;;;;;;5048295;28;20176;-87
2024/02/10 17:13:42;;;;;;;2.60;2.40;;;11.40;97.30;;;;;;5048690;28;20308;-87
2024/02/10 17:16:08;;;;;;;6.80;3.17;;;11.40;97.30;;;;;;5040868;28;20222;-87
2024/02/10 17:18:34;;;;;;;8.10;4.70;;;11.30;97.30;;;;;;5044366;28;20250;-87
2024/02/10 17:21:01;;;;;;;4.83;4.47;;;11.20;97.30;;;;;;5040956;28;20206;-88
2024/02/10 17:23:27;;;;;;;8.73;4.20;;;11.20;97.30;;;;;;5044775;28;20654;-87
2024/02/10 17:25:57;;;;;;;7.50;4.33;;;11.10;97.30;;;;;;5046191;28;20680;-87
2024/02/10 17:28:24;;;;;;;6.17;3.10;;;11.10;97.30;;;;;;5048445;28;20220;-87
2024/02/10 17:30:52;;;;;;;5.40;3.90;;;11.10;97.30;;;;;;5045529;28;20512;-86
2024/02/10 17:33:18;;;;;;;16.27;5.23;;;11.00;97.30;;;;;;5041661;28;20765;-86
2024/02/10 17:35:50;;;;;;;7.73;5.03;;;11.00;97.30;;;;;;5043718;28;20425;-87
2024/02/10 17:38:21;;;;;;;11.43;6.27;;;10.90;97.30;;;;;;5044124;28;20445;-87
2024/02/10 17:40:47;;;;;;;25.00;15.00;;;10.90;97.30;;;;;;5048232;28;20455;-86
2024/02/10 17:43:16;;;;;;;4.77;3.47;;;10.90;97.30;;;;;;5047751;28;20450;-86
2024/02/10 17:45:43;;;;;;;5.33;4.07;;;10.80;97.30;;;;;;5047499;28;21160;-87
2024/02/10 17:48:15;;;;;;;11.53;5.10;;;10.80;97.30;;;;;;5047267;28;20464;-87
2024/02/10 17:50:41;;;;;;;15.20;5.70;;;10.70;97.30;;;;;;5049601;28;20452;-86
2024/02/10 17:53:09;;;;;;;5.90;4.33;;;10.70;97.30;;;;;;5046634;28;20822;-85
2024/02/10 17:55:35;;;;;;;10.30;5.23;;;10.60;97.30;;;;;;5047891;28;20407;-86
2024/02/10 17:58:01;;;;;;;5.07;3.53;;;10.60;97.30;;;;;;5051284;28;20449;-86
2024/02/10 18:00:27;;;;;;;4.77;4.53;;;10.60;97.30;;;;;;5053610;28;20414;-87
2024/02/10 18:02:54;;;;;;;12.23;4.87;;;10.50;97.30;;;;;;5048958;28;20450;-87
2024/02/10 18:05:25;;;;;;;6.00;5.10;;;10.50;97.30;;;;;;5051523;28;20723;-86
2024/02/10 18:07:51;;;;;;;3.80;2.80;;;10.40;97.30;;;;;;5045383;28;20443;-87
2024/02/10 18:10:17;;;;;;;3.90;3.70;;;10.40;97.30;;;;;;5047978;28;20419;-87
2024/02/10 18:12:42;;;;;;;9.93;4.20;;;10.30;97.30;;;;;;5039621;28;20466;-85
2024/02/10 18:15:08;;;;;;;3.20;3.00;;;10.30;97.30;;;;;;5053798;28;20545;-87
2024/02/10 18:17:34;;;;;;;3.40;3.20;;;10.30;97.30;;;;;;5046393;28;20716;-86
2024/02/10 18:20:00;;;;;;;3.37;3.17;;;10.30;97.30;;;;;;5045102;28;20176;-87
2024/02/10 18:22:27;;;;;;;5.53;3.33;;;10.20;97.30;;;;;;5048212;28;20229;-87
2024/02/10 18:24:53;;;;;;;4.30;2.27;;;10.20;97.30;;;;;;5048894;28;20594;-85
2024/02/10 18:27:19;;;;;;;6.07;4.70;;;10.20;97.30;;;;;;5050203;28;20418;-86
2024/02/10 18:29:47;;;;;;;5.30;2.03;;;10.20;97.30;;;;;;5051854;28;20469;-87
2024/02/10 18:32:14;;;;;;;5.40;3.93;;;10.20;97.30;;;;;;5050239;28;20267;-83
2024/02/10 18:34:39;;;;;;;4.93;2.00;;;10.20;97.30;;;;;;5050328;28;20461;-87
2024/02/10 18:37:05;;;;;;;8.90;3.70;;;10.20;97.30;;;;;;5043536;28;20422;-86
2024/02/10 18:39:31;;;;;;;5.93;5.50;;;10.10;97.30;;;;;;5047288;28;20661;-87
2024/02/10 18:41:56;;;;;;;3.83;3.43;;;10.10;97.30;;;;;;5033016;28;20208;-87
2024/02/10 18:44:22;;;;;;;3.87;3.53;;;10.10;97.30;;;;;;5048939;28;20211;-87
2024/02/10 18:46:50;;;;;;;3.40;2.57;;;10.10;97.30;;;;;;5046992;28;20325;-86
2024/02/10 18:49:16;;;;;;;3.37;2.90;;;10.10;97.30;;;;;;5045686;28;20253;-84
2024/02/10 18:51:41;;;;;;;5.40;5.10;;;10.10;97.30;;;;;;5045875;28;20414;-86
2024/02/10 18:54:12;;;;;;;3.87;2.50;;;10.10;97.30;;;;;;5048015;28;20976;-86
2024/02/10 18:56:41;;;;;;;5.80;4.87;;;10.10;97.30;;;;;;5042293;28;20610;-87
2024/02/10 18:59:08;;;;;;;11.47;4.77;;;10.10;97.30;;;;;;5051092;28;20439;-87
2024/02/10 19:01:35;;;;;;;7.73;4.60;;;10.10;97.30;;;;;;5048311;28;20421;-84
2024/02/10 19:04:04;;;;;;;5.57;3.93;;;10.00;97.30;;;;;;5047429;28;20463;-87
2024/02/10 19:06:33;;;;;;;4.03;3.90;;;10.00;97.30;;;;;;5047997;28;20429;-87
2024/02/10 19:08:59;;;;;;;2.70;2.50;;;10.00;97.30;;;;;;5047659;28;20434;-87
2024/02/10 19:11:25;;;;;;;7.03;4.47;;;10.00;97.30;;;;;;5051865;28;20645;-85
2024/02/10 19:13:54;;;;;;;5.77;3.10;;;9.90;97.30;;;;;;5038858;28;20926;-86
2024/02/10 19:16:20;;;;;;;7.73;2.93;;;9.90;97.30;;;;;;5047342;28;20975;-88
2024/02/10 19:18:46;;;;;;;8.70;4.37;;;9.90;97.30;;;;;;5039699;28;20431;-87
2024/02/10 19:21:12;;;;;;;3.63;3.00;;;9.90;97.30;;;;;;5045516;28;20425;-87
2024/02/10 19:23:41;;;;;;;9.63;4.70;;;9.80;97.30;;;;;;5045055;28;20450;-87
2024/02/10 19:26:09;;;;;;;6.27;3.40;;;9.80;97.30;;;;;;5046161;28;20218;-87
2024/02/10 19:28:37;;;;;;;5.70;4.00;;;9.80;97.30;;;;;;5038754;28;20995;-87
2024/02/10 19:31:03;;;;;;;9.73;4.23;;;9.80;97.30;;;;;;5048052;28;20496;-86
2024/02/10 19:33:29;;;;;;;3.53;3.37;;;9.80;97.30;;;;;;5046810;28;20916;-87
2024/02/10 19:35:56;;;;;;;6.43;3.20;;;9.80;97.30;;;;;;5042305;28;20267;-86
2024/02/10 19:38:21;;;;;;;3.60;2.63;;;9.80;97.30;;;;;;5036146;28;20438;-87
2024/02/10 19:40:47;;;;;;;7.23;4.33;;;9.70;97.30;;;;;;5044209;28;20430;-85
2024/02/10 19:43:13;;;;;;;5.40;2.90;;;9.70;97.30;;;;;;5047060;28;20320;-87
2024/02/10 19:45:38;;;;;;;9.53;4.47;;;9.70;97.30;;;;;;5046801;28;20233;-87
2024/02/10 19:48:04;;;;;;;4.07;3.90;;;9.70;97.30;;;;;;5040710;28;20615;-87
2024/02/10 19:50:30;;;;;;;4.10;3.30;;;9.70;97.30;;;;;;5047482;28;20172;-87
2024/02/10 19:52:56;;;;;;;8.20;3.20;;;9.70;97.30;;;;;;5040913;28;20234;-88
2024/02/10 19:55:25;;;;;;;10.73;3.30;;;9.70;97.30;;;;;;5054052;28;20424;-86
2024/02/10 19:57:51;;;;;;;5.07;3.37;;;9.70;97.30;;;;;;5054771;28;20447;-86
2024/02/10 20:00:18;;;;;;;4.67;2.70;;;9.70;97.30;;;;;;5050221;28;20462;-88
2024/02/10 20:03:22;;;;;;;3.13;2.53;;;9.70;97.30;;;;;;5065329;23;20487;-87
2024/02/10 20:05:51;;;;;;;7.73;4.23;;;9.70;97.30;;;;;;5038809;28;20432;-87
2024/02/10 20:09:22;;;;;;;10.97;6.97;;;9.60;97.30;;;;;;5036356;28;20415;-90
2024/02/10 20:12:11;;;;;;;5.00;3.27;;;9.60;97.30;;;;;;5041682;28;20452;-89
2024/02/10 20:19:22;;;;;;;5.73;4.10;;;9.60;97.30;;;;;;5049427;28;20645;-92
2024/02/10 20:21:48;;;;;;;4.57;2.93;;;9.60;97.30;;;;;;4946304;23;20452;-71
2024/02/10 20:24:14;;;;;;;5.93;4.07;;;9.60;97.30;;;;;;5015033;28;20961;-71